createdAt,value
2023-03-28T00:00:49.479Z,2.90
2023-03-28T00:03:18.930Z,2.88
2023-03-28T00:05:49.092Z,3.22
2023-03-28T00:08:16.807Z,3.63
2023-03-28T00:10:43.814Z,3.78
2023-03-28T00:13:11.398Z,3.05
2023-03-28T00:15:41.994Z,3.65
2023-03-28T00:18:11.582Z,4.13
2023-03-28T00:20:39.431Z,3.67
2023-03-28T00:23:07.897Z,3.33
2023-03-28T00:25:35.537Z,3.13
2023-03-28T00:28:03.845Z,3.67
2023-03-28T00:30:31.989Z,3.78
2023-03-28T00:32:58.738Z,3.80
2023-03-28T00:35:25.644Z,3.40
2023-03-28T00:37:57.779Z,3.63
2023-03-28T00:40:25.960Z,3.30
2023-03-28T00:42:52.987Z,3.28
2023-03-28T00:45:21.381Z,3.17
2023-03-28T00:47:52.861Z,3.83
2023-03-28T00:50:24.282Z,3.75
2023-03-28T00:53:00.780Z,3.83
2023-03-28T00:55:35.653Z,3.97
2023-03-28T00:58:04.549Z,3.65
2023-03-28T01:00:32.735Z,3.70
2023-03-28T01:03:01.409Z,3.75
2023-03-28T01:05:31.736Z,3.45
2023-03-28T01:08:25.429Z,3.95
2023-03-28T01:10:51.807Z,3.53
2023-03-28T01:13:20.482Z,3.33
2023-03-28T01:15:49.403Z,3.72
2023-03-28T01:18:16.186Z,3.38
2023-03-28T01:21:02.292Z,3.92
2023-03-28T01:24:12.447Z,3.20
2023-03-28T01:26:40.485Z,4.10
2023-03-28T01:29:34.647Z,4.00
2023-03-28T01:32:21.131Z,3.22
2023-03-28T01:35:52.373Z,3.80
2023-03-28T01:38:29.441Z,4.22
2023-03-28T01:41:07.651Z,4.10
2023-03-28T01:43:46.549Z,3.75
2023-03-28T01:46:22.803Z,3.63
2023-03-28T01:49:09.199Z,4.28
2023-03-28T01:52:07.704Z,3.80
2023-03-28T01:54:45.896Z,3.90
2023-03-28T01:57:24.939Z,3.90
2023-03-28T01:59:57.597Z,4.05
2023-03-28T02:02:32.829Z,4.03
2023-03-28T02:05:01.927Z,4.25
2023-03-28T02:07:28.778Z,4.15
2023-03-28T02:09:56.313Z,4.20
2023-03-28T02:12:36.014Z,4.30
2023-03-28T02:15:06.447Z,4.32
2023-03-28T02:17:36.124Z,4.10
2023-03-28T02:20:11.667Z,4.35
2023-03-28T02:22:45.024Z,4.32
2023-03-28T02:25:11.390Z,4.10
2023-03-28T02:27:39.331Z,4.63
2023-03-28T02:30:08.008Z,4.30
2023-03-28T02:32:35.669Z,4.20
2023-03-28T02:35:04.600Z,4.47
2023-03-28T02:37:57.084Z,3.53
2023-03-28T02:41:05.833Z,4.38
2023-03-28T02:44:05.294Z,4.10
2023-03-28T02:46:53.164Z,4.28
2023-03-28T02:49:50.460Z,4.15
2023-03-28T02:52:56.393Z,4.20
2023-03-28T02:55:35.624Z,4.07
2023-03-28T02:58:08.233Z,3.92
2023-03-28T03:00:39.372Z,3.90
2023-03-28T03:03:10.410Z,3.97
2023-03-28T03:05:37.625Z,2.92
2023-03-28T03:08:04.101Z,3.83
2023-03-28T03:10:30.441Z,3.40
2023-03-28T03:12:56.838Z,3.45
2023-03-28T03:15:23.238Z,3.72
2023-03-28T03:17:49.693Z,3.50
2023-03-28T03:20:16.180Z,3.55
2023-03-28T03:22:42.588Z,3.72
2023-03-28T03:25:10.619Z,3.92
2023-03-28T03:27:39.403Z,4.22
2023-03-28T03:30:06.317Z,3.60
2023-03-28T03:32:33.459Z,3.80
2023-03-28T03:34:59.912Z,3.53
2023-03-28T03:37:27.330Z,3.75
2023-03-28T03:39:53.760Z,3.90
2023-03-28T03:42:20.252Z,4.05
2023-03-28T03:44:46.881Z,4.47
2023-03-28T03:47:13.481Z,4.82
2023-03-28T03:49:40.128Z,4.45
2023-03-28T03:52:15.934Z,4.40
2023-03-28T03:54:42.452Z,4.35
2023-03-28T03:57:08.978Z,4.53
2023-03-28T03:59:38.492Z,4.28
2023-03-28T04:02:07.003Z,3.50
2023-03-28T04:04:33.513Z,4.13
2023-03-28T04:07:02.412Z,4.40
2023-03-28T04:09:28.956Z,3.65
2023-03-28T04:11:55.820Z,3.80
2023-03-28T04:14:22.161Z,4.70
2023-03-28T04:16:50.634Z,4.18
2023-03-28T04:19:18.135Z,4.00
2023-03-28T04:21:48.067Z,3.83
2023-03-28T04:24:20.947Z,3.72
2023-03-28T04:26:50.135Z,3.10
2023-03-28T04:29:17.229Z,3.85
2023-03-28T04:31:49.717Z,4.05
2023-03-28T04:34:16.977Z,4.30
2023-03-28T04:36:43.734Z,4.00
2023-03-28T04:39:11.230Z,3.85
2023-03-28T04:41:38.863Z,3.58
2023-03-28T04:44:08.640Z,3.85
2023-03-28T04:46:36.027Z,3.40
2023-03-28T04:49:02.433Z,3.20
2023-03-28T04:51:28.866Z,3.60
2023-03-28T04:53:55.329Z,3.58
2023-03-28T04:56:22.154Z,4.13
2023-03-28T04:58:48.517Z,4.28
2023-03-28T05:01:15.840Z,3.92
2023-03-28T05:03:42.465Z,3.70
2023-03-28T05:06:09.007Z,3.90
2023-03-28T05:08:35.384Z,4.97
2023-03-28T05:11:02.188Z,3.88
2023-03-28T05:13:28.658Z,3.42
2023-03-28T05:15:55.496Z,4.07
2023-03-28T05:18:21.990Z,4.47
2023-03-28T05:20:48.405Z,4.43
2023-03-28T05:23:14.760Z,4.28
2023-03-28T05:25:41.339Z,4.40
2023-03-28T05:28:07.691Z,4.82
2023-03-28T05:30:34.237Z,5.07
2023-03-28T05:33:00.881Z,4.00
2023-03-28T05:35:27.398Z,4.13
2023-03-28T05:37:53.740Z,5.05
2023-03-28T05:40:20.112Z,4.13
2023-03-28T05:42:46.998Z,4.43
2023-03-28T05:45:13.834Z,4.05
2023-03-28T05:47:40.416Z,4.57
2023-03-28T05:50:07.793Z,6.93
2023-03-28T05:52:34.132Z,5.78
2023-03-28T05:55:00.997Z,4.82
2023-03-28T05:57:27.421Z,4.30
2023-03-28T05:59:53.884Z,4.18
2023-03-28T06:02:22.927Z,4.68
2023-03-28T06:04:49.466Z,4.30
2023-03-28T06:07:16.485Z,3.80
2023-03-28T06:09:46.831Z,3.67
2023-03-28T06:12:13.675Z,3.70
2023-03-28T06:14:40.144Z,3.67
2023-03-28T06:17:07.940Z,3.42
2023-03-28T06:19:34.641Z,3.60
2023-03-28T06:22:01.608Z,3.70
2023-03-28T06:24:29.034Z,3.67
2023-03-28T06:26:55.695Z,4.10
2023-03-28T06:29:22.108Z,3.88
2023-03-28T06:31:48.968Z,3.40
2023-03-28T06:34:15.333Z,3.78
2023-03-28T06:36:41.743Z,3.30
2023-03-28T06:39:09.747Z,3.67
2023-03-28T06:41:36.218Z,4.38
2023-03-28T06:44:02.802Z,3.58
2023-03-28T06:46:29.655Z,3.47
2023-03-28T06:48:56.262Z,3.50
2023-03-28T06:51:22.686Z,3.55
2023-03-28T06:53:49.034Z,3.80
2023-03-28T06:56:15.673Z,3.40
2023-03-28T06:58:42.147Z,3.33
2023-03-28T07:01:08.500Z,4.10
2023-03-28T07:03:35.445Z,3.47
2023-03-28T07:06:06.522Z,2.38
2023-03-28T07:08:32.864Z,2.80
2023-03-28T07:10:59.413Z,2.90
2023-03-28T07:13:26.165Z,3.17
2023-03-28T07:16:04.042Z,3.22
2023-03-28T07:18:30.936Z,2.70
2023-03-28T07:21:03.927Z,3.35
2023-03-28T07:23:30.958Z,3.20
2023-03-28T07:25:57.282Z,3.08
2023-03-28T07:28:24.246Z,3.15
2023-03-28T07:30:53.055Z,3.13
2023-03-28T07:33:25.409Z,2.83
2023-03-28T07:35:57.592Z,2.25
2023-03-28T07:38:24.460Z,2.92
2023-03-28T07:40:51.075Z,2.53
2023-03-28T07:43:17.466Z,2.17
2023-03-28T07:45:44.291Z,2.40
2023-03-28T07:48:10.902Z,2.10
2023-03-28T07:50:37.652Z,2.45
2023-03-28T07:53:04.167Z,2.42
2023-03-28T07:55:31.888Z,2.35
2023-03-28T07:58:02.896Z,2.40
2023-03-28T08:00:29.397Z,2.42
2023-03-28T08:02:57.809Z,2.58
2023-03-28T08:05:26.402Z,2.47
2023-03-28T08:07:53.894Z,1.80
2023-03-28T08:10:20.389Z,2.15
2023-03-28T08:12:46.771Z,2.20
2023-03-28T08:15:13.468Z,2.45
2023-03-28T08:17:39.913Z,2.67
2023-03-28T08:20:10.925Z,3.33
2023-03-28T08:22:37.464Z,3.25
2023-03-28T08:25:04.764Z,2.85
2023-03-28T08:27:31.542Z,3.08
2023-03-28T08:29:58.486Z,2.80
2023-03-28T08:32:25.289Z,2.55
2023-03-28T08:34:51.670Z,3.03
2023-03-28T08:37:20.006Z,2.85
2023-03-28T08:39:47.139Z,2.78
2023-03-28T08:42:22.786Z,2.33
2023-03-28T08:45:13.019Z,2.50
2023-03-28T08:47:57.883Z,2.35
2023-03-28T08:50:29.067Z,2.53
2023-03-28T08:52:55.624Z,2.55
2023-03-28T08:55:32.638Z,2.00
2023-03-28T08:57:59.454Z,2.05
2023-03-28T09:00:31.104Z,1.65
2023-03-28T09:02:58.218Z,1.75
2023-03-28T09:05:38.747Z,2.00
2023-03-28T09:08:19.260Z,2.03
2023-03-28T09:11:27.725Z,1.60
2023-03-28T09:14:25.766Z,1.65
2023-03-28T09:16:55.109Z,1.88
2023-03-28T09:19:48.379Z,1.70
2023-03-28T09:22:22.052Z,1.60
2023-03-28T09:25:00.131Z,1.55
2023-03-28T09:27:47.993Z,1.67
2023-03-28T09:30:23.401Z,1.58
2023-03-28T09:32:50.714Z,1.60
2023-03-28T09:35:19.904Z,1.80
2023-03-28T09:37:54.049Z,1.88
2023-03-28T09:43:02.504Z,1.92
2023-03-28T09:46:02.699Z,1.63
2023-03-28T09:48:33.098Z,1.50
2023-03-28T09:51:00.813Z,1.70
2023-03-28T09:53:35.554Z,1.75
2023-03-28T09:56:15.979Z,1.90
2023-03-28T09:58:51.223Z,2.08
2023-03-28T10:01:34.122Z,1.75
2023-03-28T10:04:00.818Z,1.63
2023-03-28T10:06:29.903Z,2.20
2023-03-28T10:09:32.017Z,2.15
2023-03-28T10:12:04.694Z,1.70
2023-03-28T10:14:38.055Z,1.48
2023-03-28T10:17:17.939Z,1.50
2023-03-28T10:19:46.507Z,1.63
2023-03-28T10:22:16.079Z,1.40
2023-03-28T10:24:46.110Z,1.73
2023-03-28T10:27:12.528Z,1.77
2023-03-28T10:29:38.938Z,1.40
2023-03-28T10:32:06.333Z,2.00
2023-03-28T10:34:34.721Z,1.38
2023-03-28T10:37:01.517Z,1.40
2023-03-28T10:39:33.104Z,1.70
2023-03-28T10:42:00.732Z,1.42
2023-03-28T10:44:32.519Z,1.13
2023-03-28T10:47:18.384Z,1.52
2023-03-28T10:49:47.083Z,1.77
2023-03-28T10:52:32.561Z,1.25
2023-03-28T10:55:14.541Z,1.08
2023-03-28T10:58:28.553Z,1.50
2023-03-28T11:01:01.706Z,1.63
2023-03-28T11:03:49.971Z,1.38
2023-03-28T11:06:35.018Z,1.60
2023-03-28T11:09:10.963Z,1.98
2023-03-28T11:11:46.311Z,1.67
2023-03-28T11:14:47.555Z,1.63
2023-03-28T11:17:32.764Z,1.60
2023-03-28T11:20:23.372Z,1.88
2023-03-28T11:23:07.212Z,2.42
2023-03-28T11:26:04.285Z,6.50
2023-03-28T11:28:50.906Z,4.80
2023-03-28T11:31:33.406Z,2.92
2023-03-28T11:34:28.668Z,1.60
2023-03-28T11:37:03.287Z,1.77
2023-03-28T11:39:43.379Z,4.68
2023-03-28T11:42:20.923Z,2.10
2023-03-28T11:45:18.467Z,2.60
2023-03-28T11:47:48.354Z,2.00
2023-03-28T11:50:18.780Z,1.92
2023-03-28T11:52:54.056Z,1.70
2023-03-28T11:55:22.994Z,1.95
2023-03-28T11:58:05.378Z,2.28
2023-03-28T12:00:47.332Z,3.20
2023-03-28T12:03:46.097Z,1.60
2023-03-28T12:06:17.192Z,1.80
2023-03-28T12:08:59.182Z,1.70
2023-03-28T12:11:30.066Z,1.42
2023-03-28T12:14:12.077Z,1.33
2023-03-28T12:16:44.267Z,2.45
2023-03-28T12:19:12.393Z,2.25
2023-03-28T12:21:39.996Z,1.42
2023-03-28T12:24:15.114Z,1.60
2023-03-28T12:26:44.877Z,1.90
2023-03-28T12:29:38.469Z,1.55
2023-03-28T12:32:21.916Z,1.40
2023-03-28T12:34:59.690Z,1.55
2023-03-28T12:37:35.522Z,1.35
2023-03-28T12:40:13.438Z,1.42
2023-03-28T12:42:45.140Z,1.35
2023-03-28T12:45:29.796Z,2.17
2023-03-28T12:48:02.603Z,2.03
2023-03-28T12:50:33.417Z,1.70
2023-03-28T12:53:00.261Z,1.70
2023-03-28T12:55:26.603Z,1.13
2023-03-28T12:57:54.658Z,1.55
2023-03-28T13:00:35.469Z,1.48
2023-03-28T13:03:41.914Z,1.40
2023-03-28T13:06:24.181Z,1.10
2023-03-28T13:08:59.222Z,1.55
2023-03-28T13:11:40.068Z,2.42
2023-03-28T13:14:21.212Z,1.63
2023-03-28T13:16:59.791Z,1.60
2023-03-28T13:19:47.435Z,1.77
2023-03-28T13:22:29.206Z,1.75
2023-03-28T13:25:28.552Z,1.63
2023-03-28T13:27:59.015Z,1.80
2023-03-28T13:30:27.600Z,1.30
2023-03-28T13:33:04.029Z,2.33
2023-03-28T13:35:48.894Z,1.45
2023-03-28T13:38:32.906Z,2.25
2023-03-28T13:41:06.812Z,1.73
2023-03-28T13:43:35.987Z,2.10
2023-03-28T13:46:07.760Z,1.42
2023-03-28T13:48:54.438Z,1.95
2023-03-28T13:51:27.228Z,1.60
2023-03-28T13:53:53.618Z,1.67
2023-03-28T13:56:24.798Z,1.90
2023-03-28T13:58:53.817Z,2.03
2023-03-28T14:01:27.218Z,1.98
2023-03-28T14:03:55.140Z,2.22
2023-03-28T14:06:25.026Z,1.60
2023-03-28T14:08:53.672Z,2.38
2023-03-28T14:11:31.606Z,1.80
2023-03-28T14:14:07.310Z,2.17
2023-03-28T14:16:35.504Z,2.00
2023-03-28T14:19:03.633Z,1.65
2023-03-28T14:21:31.755Z,1.95
2023-03-28T14:24:04.194Z,2.47
2023-03-28T14:26:33.944Z,2.10
2023-03-28T14:29:11.426Z,1.98
2023-03-28T14:31:40.556Z,3.25
2023-03-28T14:34:25.468Z,2.10
2023-03-28T14:36:58.842Z,2.45
2023-03-28T14:39:27.396Z,3.00
2023-03-28T14:41:55.008Z,2.17
2023-03-28T14:44:21.919Z,2.10
2023-03-28T14:46:49.518Z,2.55
2023-03-28T14:49:20.860Z,2.63
2023-03-28T14:51:53.650Z,2.97
2023-03-28T14:54:24.774Z,2.20
2023-03-28T14:56:51.657Z,1.98
2023-03-28T14:59:19.619Z,1.95
2023-03-28T15:01:49.907Z,1.92
2023-03-28T15:04:19.321Z,2.45
2023-03-28T15:06:54.506Z,2.45
2023-03-28T15:09:32.544Z,2.08
2023-03-28T15:12:02.490Z,1.98
2023-03-28T15:14:33.166Z,2.20
2023-03-28T15:17:00.301Z,2.50
2023-03-28T15:19:33.864Z,1.90
2023-03-28T15:22:04.227Z,1.80
2023-03-28T15:24:31.317Z,1.98
2023-03-28T15:27:00.022Z,2.67
2023-03-28T15:29:27.440Z,1.70
2023-03-28T15:31:58.752Z,2.03
2023-03-28T15:34:27.424Z,2.75
2023-03-28T15:37:04.958Z,3.50
2023-03-28T15:39:33.028Z,4.05
2023-03-28T15:42:01.658Z,2.55
2023-03-28T15:44:29.585Z,3.55
2023-03-28T15:46:59.097Z,2.53
2023-03-28T15:49:25.926Z,2.30
2023-03-28T15:51:59.774Z,2.25
2023-03-28T15:54:31.398Z,2.10
2023-03-28T15:57:01.043Z,5.07
2023-03-28T15:59:37.165Z,3.58
2023-03-28T16:02:22.463Z,3.60
2023-03-28T16:05:10.219Z,2.70
2023-03-28T16:07:50.656Z,2.75
2023-03-28T16:10:19.077Z,2.20
2023-03-28T16:12:46.239Z,2.15
2023-03-28T16:15:13.151Z,3.88
2023-03-28T16:17:42.153Z,2.50
2023-03-28T16:20:21.852Z,2.05
2023-03-28T16:22:48.831Z,3.10
2023-03-28T16:25:15.436Z,3.65
2023-03-28T16:27:42.664Z,3.45
2023-03-28T16:30:30.009Z,2.80
2023-03-28T16:32:56.455Z,2.95
2023-03-28T16:35:23.166Z,2.13
2023-03-28T16:37:49.615Z,2.13
2023-03-28T16:40:16.006Z,3.30
2023-03-28T16:42:42.683Z,2.40
2023-03-28T16:45:12.760Z,2.55
2023-03-28T16:47:39.916Z,2.50
2023-03-28T16:50:09.065Z,2.45
2023-03-28T16:52:40.128Z,2.17
2023-03-28T16:55:11.155Z,2.47
2023-03-28T16:57:37.812Z,2.50
2023-03-28T17:00:05.785Z,2.78
2023-03-28T17:02:32.272Z,2.35
2023-03-28T17:04:58.696Z,2.60
2023-03-28T17:07:25.483Z,3.00
2023-03-28T17:09:52.217Z,2.60
2023-03-28T17:12:18.681Z,2.30
2023-03-28T17:14:45.970Z,2.28
2023-03-28T17:17:13.102Z,2.35
2023-03-28T17:19:39.654Z,1.90
2023-03-28T17:22:06.017Z,2.22
2023-03-28T17:24:32.804Z,2.47
2023-03-28T17:26:59.264Z,2.13
2023-03-28T17:29:25.625Z,2.15
2023-03-28T17:31:52.739Z,2.35
2023-03-28T17:34:19.316Z,1.83
2023-03-28T17:36:45.935Z,2.45
2023-03-28T17:39:12.595Z,2.20
2023-03-28T17:41:39.112Z,1.77
2023-03-28T17:44:06.469Z,1.98
2023-03-28T17:46:33.315Z,2.33
2023-03-28T17:49:01.509Z,1.90
2023-03-28T17:51:28.316Z,2.33
2023-03-28T17:53:54.779Z,1.67
2023-03-28T17:56:21.529Z,1.95
2023-03-28T17:58:47.925Z,1.77
2023-03-28T18:01:17.031Z,2.22
2023-03-28T18:03:45.853Z,1.85
2023-03-28T18:06:13.263Z,1.80
2023-03-28T18:08:40.114Z,1.67
2023-03-28T18:11:09.101Z,2.17
2023-03-28T18:13:36.616Z,2.13
2023-03-28T18:16:04.442Z,1.80
2023-03-28T18:18:31.701Z,2.15
2023-03-28T18:20:58.169Z,1.80
2023-03-28T18:23:24.833Z,1.98
2023-03-28T18:25:51.884Z,1.83
2023-03-28T18:28:22.044Z,2.05
2023-03-28T18:30:48.404Z,2.03
2023-03-28T18:33:14.801Z,1.88
2023-03-28T18:35:41.756Z,2.03
2023-03-28T18:38:08.269Z,1.60
2023-03-28T18:40:34.676Z,2.75
2023-03-28T18:43:01.103Z,2.22
2023-03-28T18:45:27.534Z,2.17
2023-03-28T18:47:53.954Z,2.25
2023-03-28T18:50:21.003Z,2.33
2023-03-28T18:52:47.728Z,2.00
2023-03-28T18:55:14.779Z,2.05
2023-03-28T18:57:41.412Z,2.20
2023-03-28T19:00:20.406Z,2.03
2023-03-28T19:02:48.384Z,2.10
2023-03-28T19:05:16.216Z,1.90
2023-03-28T19:07:43.693Z,2.30
2023-03-28T19:10:12.845Z,2.15
2023-03-28T19:12:40.369Z,1.98
2023-03-28T19:15:08.295Z,1.58
2023-03-28T19:17:35.619Z,1.88
2023-03-28T19:20:07.218Z,2.17
2023-03-28T19:22:34.916Z,2.83
2023-03-28T19:25:01.380Z,2.20
2023-03-28T19:27:27.810Z,1.70
2023-03-28T19:29:54.130Z,4.03
2023-03-28T19:32:20.733Z,2.90
2023-03-28T19:34:47.124Z,2.10
2023-03-28T19:37:13.692Z,2.58
2023-03-28T19:39:40.069Z,2.35
2023-03-28T19:42:07.531Z,2.83
2023-03-28T19:44:33.838Z,2.90
2023-03-28T19:47:00.297Z,2.95
2023-03-28T19:49:26.663Z,2.67
2023-03-28T19:51:53.369Z,3.30
2023-03-28T19:54:19.852Z,3.45
2023-03-28T19:56:46.724Z,2.53
2023-03-28T19:59:13.138Z,2.60
2023-03-28T20:01:39.664Z,2.83
2023-03-28T20:04:06.545Z,3.22
2023-03-28T20:06:32.908Z,2.20
2023-03-28T20:08:59.379Z,2.80
2023-03-28T20:11:26.729Z,2.92
2023-03-28T20:13:53.097Z,2.70
2023-03-28T20:16:19.491Z,2.83
2023-03-28T20:18:46.276Z,2.47
2023-03-28T20:21:13.206Z,2.60
2023-03-28T20:23:39.745Z,2.83
2023-03-28T20:26:14.345Z,2.90
2023-03-28T20:28:41.550Z,2.58
2023-03-28T20:31:12.531Z,2.95
2023-03-28T20:33:39.952Z,2.42
2023-03-28T20:36:08.602Z,2.00
2023-03-28T20:38:35.136Z,2.00
2023-03-28T20:41:01.851Z,1.80
2023-03-28T20:43:29.456Z,2.65
2023-03-28T20:45:57.835Z,2.22
2023-03-28T20:48:35.921Z,2.35
2023-03-28T20:51:03.739Z,2.08
2023-03-28T20:53:30.885Z,2.20
2023-03-28T20:56:03.304Z,2.38
2023-03-28T20:58:31.797Z,2.83
2023-03-28T21:01:00.287Z,2.63
2023-03-28T21:03:47.211Z,2.92
2023-03-28T21:06:29.202Z,3.03
2023-03-28T21:08:59.338Z,2.65
2023-03-28T21:11:28.915Z,2.13
2023-03-28T21:13:57.494Z,2.10
2023-03-28T21:16:24.511Z,2.30
2023-03-28T21:18:51.207Z,2.53
2023-03-28T21:21:19.300Z,2.22
2023-03-28T21:23:46.804Z,2.05
2023-03-28T21:26:19.165Z,2.10
2023-03-28T21:28:46.395Z,2.00
2023-03-28T21:31:18.301Z,2.00
2023-03-28T21:33:45.792Z,2.17
2023-03-28T21:36:16.157Z,2.30
2023-03-28T21:38:43.330Z,1.90
2023-03-28T21:41:11.285Z,2.55
2023-03-28T21:43:38.717Z,1.90
2023-03-28T21:46:07.094Z,2.35
2023-03-28T21:48:34.933Z,1.95
2023-03-28T21:51:02.328Z,2.78
2023-03-28T21:53:31.290Z,2.25
2023-03-28T21:55:59.363Z,2.20
2023-03-28T21:58:28.165Z,1.90
2023-03-28T22:00:55.539Z,1.98
2023-03-28T22:03:22.245Z,1.55
2023-03-28T22:05:52.212Z,1.50
2023-03-28T22:08:19.934Z,1.70
2023-03-28T22:10:51.402Z,2.13
2023-03-28T22:13:18.375Z,1.40
2023-03-28T22:15:44.836Z,2.20
2023-03-28T22:18:12.102Z,1.80
2023-03-28T22:20:42.755Z,1.98
2023-03-28T22:23:09.921Z,1.90
2023-03-28T22:25:38.187Z,1.70
2023-03-28T22:28:06.966Z,1.73
2023-03-28T22:30:33.958Z,1.80
2023-03-28T22:33:00.802Z,1.95
2023-03-28T22:35:27.322Z,1.98
2023-03-28T22:37:53.712Z,2.30
2023-03-28T22:40:20.568Z,2.20
2023-03-28T22:42:46.950Z,1.80
2023-03-28T22:45:13.481Z,2.20
2023-03-28T22:47:40.136Z,2.30
2023-03-28T22:50:09.347Z,2.17
2023-03-28T22:52:38.032Z,2.17
2023-03-28T22:55:05.858Z,2.25
2023-03-28T22:57:33.129Z,2.30
2023-03-28T23:00:01.496Z,2.38
2023-03-28T23:02:28.737Z,2.03
2023-03-28T23:04:55.873Z,2.08
2023-03-28T23:07:22.295Z,2.53
2023-03-28T23:09:48.812Z,2.40
2023-03-28T23:12:16.897Z,2.15
2023-03-28T23:14:43.269Z,2.42
2023-03-28T23:17:10.960Z,2.28
2023-03-28T23:19:37.413Z,2.17
2023-03-28T23:22:04.156Z,2.20
2023-03-28T23:24:30.509Z,2.65
2023-03-28T23:26:56.963Z,2.60
2023-03-28T23:29:24.110Z,2.42
2023-03-28T23:31:50.926Z,2.22
2023-03-28T23:34:18.601Z,2.10
2023-03-28T23:36:46.198Z,1.90
2023-03-28T23:39:13.431Z,2.03
2023-03-28T23:41:40.736Z,2.28
2023-03-28T23:44:07.927Z,2.53
2023-03-28T23:46:34.764Z,2.45
2023-03-28T23:49:01.598Z,2.45
2023-03-28T23:51:29.250Z,2.50
2023-03-28T23:53:56.393Z,2.58
2023-03-28T23:56:23.983Z,2.13
2023-03-28T23:58:50.729Z,1.90
